^^
Saratoga-Weather Station Historical Data
Daily Summary for April 17, 2020 Units:  English    Metric   Both
Daily Weekly Monthly Yearly Custom
  High: Low: Average:
Temperature: 78.4 °F 61.3 °F 68.5 °F
Dew Point: 60.6 °F 46.6 °F 55.9 °F
Humidity: 85% 43% 65%
Wind Speed: 12mph 0mph 2.3mph
Wind Gust: 13mph - -
Wind- - SSE
Pressure: 30.2 in 30.1 in -
Precipitation: 0 in    
Historical Graphs
 
 
Tabular Data for April 17, 2020
Time Temperature Dew Point Pressure Wind Wind Speed Wind Gust Humidity Rainfall Rate (Hourly) solar
00:00 70.5 °F 60.3 °F 30.1 in West 2 mph 6 mph 70% 0 in 0 W/m2
00:05 70.5 °F 60.3 °F 30.1 in WNW 2.9 mph 7 mph 70% 0 in 0 W/m2
00:10 70.5 °F 60.6 °F 30.1 in NNW 0.9 mph 3 mph 71% 0 in 0 W/m2
00:15 70.5 °F 60.6 °F 30.1 in West 0.9 mph 4 mph 71% 0 in 0 W/m2
00:21 70.3 °F 60.4 °F 30.1 in NW 2.9 mph 5 mph 71% 0 in 0 W/m2
00:26 70.3 °F 60.4 °F 30.1 in West 2.9 mph 6 mph 71% 0 in 0 W/m2
00:31 70.3 °F 60.4 °F 30.1 in WSW 4 mph 6 mph 71% 0 in 0 W/m2
00:36 70.3 °F 60.4 °F 30.1 in NNW 4 mph 8 mph 71% 0 in 0 W/m2
00:41 70.2 °F 60.3 °F 30.1 in West 2 mph 5 mph 71% 0 in 0 W/m2
00:46 70.2 °F 60.3 °F 30.1 in NW 4 mph 8 mph 71% 0 in 0 W/m2
00:51 70.2 °F 60.3 °F 30.1 in WNW 2.9 mph 6 mph 71% 0 in 0 W/m2
00:56 70 °F 60.1 °F 30.1 in WNW 4 mph 9 mph 71% 0 in 0 W/m2
01:01 70 °F 60.1 °F 30.1 in NNW 4.9 mph 5 mph 71% 0 in 0 W/m2
01:06 69.8 °F 59.9 °F 30.1 in SW 0.9 mph 9 mph 71% 0 in 0 W/m2
01:11 69.6 °F 60.3 °F 30.1 in WSW 4 mph 4 mph 72% 0 in 0 W/m2
01:16 69.6 °F 60.3 °F 30.1 in WNW 2.9 mph 4 mph 72% 0 in 0 W/m2
01:21 69.4 °F 60.1 °F 30.1 in WNW 2 mph 2 mph 72% 0 in 0 W/m2
01:26 69.3 °F 59.9 °F 30.1 in West 2 mph 6 mph 72% 0 in 0 W/m2
01:31 69.3 °F 60.3 °F 30.1 in NNW 0.9 mph 2 mph 73% 0 in 0 W/m2
01:36 69.1 °F 60.1 °F 30.1 in WNW 4 mph 4 mph 73% 0 in 0 W/m2
01:41 68.9 °F 59.9 °F 30.1 in WNW 2 mph 4 mph 73% 0 in 0 W/m2
01:46 68.7 °F 59.7 °F 30.1 in WNW 8.9 mph 9 mph 73% 0 in 0 W/m2
01:51 68.7 °F 59.7 °F 30.1 in NW 0.9 mph 4 mph 73% 0 in 0 W/m2
01:56 68.7 °F 59.7 °F 30.1 in WNW 2.9 mph 8 mph 73% 0 in 0 W/m2
02:01 68.5 °F 59.5 °F 30.1 in NNW 4 mph 4 mph 73% 0 in 0 W/m2
02:06 68.4 °F 59.4 °F 30.1 in North 6 mph 6 mph 73% 0 in 0 W/m2
02:11 68.2 °F 59.2 °F 30.1 in NE 2.9 mph 5 mph 73% 0 in 0 W/m2
02:16 68.2 °F 59.5 °F 30.1 in NE 0.9 mph 2 mph 74% 0 in 0 W/m2
02:21 67.8 °F 59.2 °F 30.1 in West 2 mph 8 mph 74% 0 in 0 W/m2
02:26 67.8 °F 59.2 °F 30.1 in Calm   6 mph 74% 0 in 0 W/m2
02:31 67.6 °F 59 °F 30.1 in East 2 mph 8 mph 74% 0 in 0 W/m2
02:36 67.6 °F 59 °F 30.1 in ENE 2.9 mph 6 mph 74% 0 in 0 W/m2
02:41 67.5 °F 58.8 °F 30.1 in East 2 mph 3 mph 74% 0 in 0 W/m2
02:46 67.3 °F 58.6 °F 30.1 in NNW 0.9 mph 3 mph 74% 0 in 0 W/m2
02:51 67.1 °F 58.5 °F 30.1 in NE 2.9 mph 3 mph 74% 0 in 0 W/m2
02:56 66.9 °F 58.3 °F 30.1 in Calm   2 mph 74% 0 in 0 W/m2
03:01 66.7 °F 58.1 °F 30.1 in NW 0.9 mph 2 mph 74% 0 in 0 W/m2
03:06 66.6 °F 58.1 °F 30.2 in Calm   7 mph 74% 0 in 0 W/m2
03:11 66.6 °F 58.5 °F 30.2 in North 2 mph 4 mph 75% 0 in 0 W/m2
03:16 66.4 °F 58.3 °F 30.1 in ENE 8.1 mph 8 mph 75% 0 in 0 W/m2
03:21 66.2 °F 58.1 °F 30.2 in SSW 0.9 mph 3 mph 75% 0 in 0 W/m2
03:26 66 °F 57.9 °F 30.2 in ENE 2.9 mph 4 mph 75% 0 in 0 W/m2
03:31 65.8 °F 57.7 °F 30.2 in South 2 mph 5 mph 75% 0 in 0 W/m2
03:36 65.7 °F 57.6 °F 30.2 in WSW 0.9 mph 2 mph 75% 0 in 0 W/m2
03:41 65.7 °F 57.6 °F 30.2 in NNE 0.9 mph 2 mph 75% 0 in 0 W/m2
03:46 65.5 °F 57.4 °F 30.2 in NNW 0.9 mph 4 mph 75% 0 in 0 W/m2
03:51 65.5 °F 57.4 °F 30.2 in WSW 2 mph 4 mph 75% 0 in 0 W/m2
03:56 65.3 °F 57.2 °F 30.2 in WNW 2 mph 3 mph 75% 0 in 0 W/m2
04:01 65.1 °F 57.4 °F 30.2 in NNE 0.9 mph 5 mph 76% 0 in 0 W/m2
04:06 65.1 °F 57.4 °F 30.2 in NNW 0.9 mph 5 mph 76% 0 in 0 W/m2
04:11 64.9 °F 57.2 °F 30.1 in North 0.9 mph 3 mph 76% 0 in 0 W/m2
04:16 64.8 °F 57 °F 30.1 in WNW 0.9 mph 4 mph 76% 0 in 0 W/m2
04:21 64.8 °F 57 °F 30.1 in Calm   2 mph 76% 0 in 0 W/m2
04:26 64.6 °F 56.8 °F 30.1 in NNW 2 mph 2 mph 76% 0 in 0 W/m2
04:32 64.2 °F 56.8 °F 30.1 in North 0.9 mph 4 mph 77% 0 in 0 W/m2
04:37 64.2 °F 56.8 °F 30.1 in WNW 4 mph 7 mph 77% 0 in 0 W/m2
04:42 64.2 °F 56.8 °F 30.1 in ENE 4 mph 5 mph 77% 0 in 0 W/m2
04:47 64 °F 56.7 °F 30.1 in SE 2 mph 6 mph 77% 0 in 0 W/m2
04:52 63.9 °F 56.8 °F 30.1 in SSW 4.9 mph 5 mph 78% 0 in 0 W/m2
04:57 63.9 °F 56.8 °F 30.2 in ESE 0.9 mph 2 mph 78% 0 in 0 W/m2
05:02 63.7 °F 56.7 °F 30.2 in North 4.9 mph 5 mph 78% 0 in 0 W/m2
05:07 63.5 °F 56.5 °F 30.2 in NW 0.9 mph 6 mph 78% 0 in 0 W/m2
05:12 63.3 °F 56.3 °F 30.2 in Calm   1 mph 78% 0 in 0 W/m2
05:17 63.1 °F 56.5 °F 30.2 in SSW 2 mph 2 mph 79% 0 in 0 W/m2
05:23 63 °F 56.7 °F 30.2 in NNW 0.9 mph 3 mph 80% 0 in 0 W/m2
05:28 62.8 °F 56.5 °F 30.2 in NNE 4 mph 4 mph 80% 0 in 0 W/m2
05:33 62.8 °F 56.5 °F 30.2 in SSE 2 mph 2 mph 80% 0 in 0 W/m2
05:38 62.6 °F 56.7 °F 30.2 in Calm   3 mph 81% 0 in 0 W/m2
05:43 62.4 °F 56.5 °F 30.2 in WSW 2.9 mph 3 mph 81% 0 in 0 W/m2
05:48 62.4 °F 56.5 °F 30.2 in West 0.9 mph 2 mph 81% 0 in 0 W/m2
05:53 62.2 °F 56.3 °F 30.2 in ENE 0.9 mph 3 mph 81% 0 in 0 W/m2
05:58 62.2 °F 56.7 °F 30.2 in NW 0.9 mph 4 mph 82% 0 in 0 W/m2
06:03 62.1 °F 56.5 °F 30.2 in WNW 2.9 mph 3 mph 82% 0 in 0 W/m2
06:08 62.1 °F 56.5 °F 30.2 in NNW 0.9 mph 2 mph 82% 0 in 0 W/m2
06:13 62.1 °F 56.5 °F 30.2 in West 2 mph 3 mph 82% 0 in 0 W/m2
06:18 61.9 °F 56.7 °F 30.2 in WNW 2 mph 2 mph 83% 0 in 0 W/m2
06:23 61.9 °F 56.7 °F 30.2 in Calm   3 mph 83% 0 in 0 W/m2
06:28 61.9 °F 56.7 °F 30.2 in North 0.9 mph 1 mph 83% 0 in 0 W/m2
06:33 61.7 °F 56.5 °F 30.2 in ESE 4.9 mph 6 mph 83% 0 in 0 W/m2
06:38 61.7 °F 56.5 °F 30.2 in NE 0.9 mph 2 mph 83% 0 in 0 W/m2
06:43 61.7 °F 56.8 °F 30.2 in West 4 mph 4 mph 84% 0 in 0 W/m2
06:48 61.5 °F 56.7 °F 30.2 in ENE 4 mph 6 mph 84% 0 in 0 W/m2
06:53 61.5 °F 56.7 °F 30.2 in North 0.9 mph 7 mph 84% 0 in 0 W/m2
06:58 61.5 °F 56.7 °F 30.2 in NNW 2 mph 3 mph 84% 0 in 0 W/m2
07:03 61.5 °F 56.7 °F 30.2 in WNW 2.9 mph 5 mph 84% 0 in 0 W/m2
07:08 61.3 °F 56.5 °F 30.2 in Calm   3 mph 84% 0 in 0 W/m2
07:13 61.3 °F 56.5 °F 30.2 in NE 2 mph 2 mph 84% 0 in 0 W/m2
07:18 61.3 °F 56.8 °F 30.2 in Calm   4 mph 85% 0 in 5 W/m2
07:23 61.3 °F 56.8 °F 30.2 in WNW 2.9 mph 3 mph 85% 0 in 9 W/m2
07:29 61.3 °F 56.8 °F 30.2 in ENE 2 mph 6 mph 85% 0 in 11 W/m2
07:34 61.3 °F 56.8 °F 30.2 in North 0.9 mph 6 mph 85% 0 in 12 W/m2
07:39 61.5 °F 57 °F 30.2 in WNW 2 mph 5 mph 85% 0 in 16 W/m2
07:44 61.5 °F 56.7 °F 30.2 in North 6 mph 9 mph 84% 0 in 18 W/m2
07:49 61.5 °F 56.7 °F 30.2 in West 0.9 mph 3 mph 84% 0 in 21 W/m2
07:54 61.5 °F 56.7 °F 30.2 in ESE 2.9 mph 9 mph 84% 0 in 23 W/m2
07:59 61.7 °F 56.8 °F 30.2 in SW 4 mph 5 mph 84% 0 in 25 W/m2
08:04 61.9 °F 57 °F 30.2 in East 2 mph 9 mph 84% 0 in 26 W/m2
08:09 61.9 °F 56.7 °F 30.2 in East 0.9 mph 3 mph 83% 0 in 28 W/m2
08:14 61.9 °F 56.7 °F 30.2 in SSW 0.9 mph 3 mph 83% 0 in 30 W/m2
08:19 61.9 °F 56.7 °F 30.2 in North 2.9 mph 4 mph 83% 0 in 33 W/m2
08:24 62.1 °F 56.8 °F 30.2 in NW 0.9 mph 2 mph 83% 0 in 44 W/m2
08:29 62.1 °F 56.8 °F 30.2 in East 4 mph 6 mph 83% 0 in 69 W/m2
08:34 62.1 °F 56.8 °F 30.2 in WNW 0.9 mph 3 mph 83% 0 in 84 W/m2
08:39 62.1 °F 56.5 °F 30.2 in WSW 2.9 mph 3 mph 82% 0 in 95 W/m2
08:45 62.2 °F 56.7 °F 30.2 in ESE 2.9 mph 4 mph 82% 0 in 51 W/m2
08:50 62.2 °F 56.7 °F 30.2 in WNW 2 mph 3 mph 82% 0 in 47 W/m2
08:55 62.2 °F 56.3 °F 30.2 in North 0.9 mph 3 mph 81% 0 in 137 W/m2
09:00 62.4 °F 56.5 °F 30.2 in West 2 mph 10 mph 81% 0 in 153 W/m2
09:05 62.6 °F 56.7 °F 30.2 in WNW 2.9 mph 6 mph 81% 0 in 165 W/m2
09:10 62.8 °F 56.5 °F 30.2 in ESE 6.9 mph 7 mph 80% 0 in 179 W/m2
09:15 63 °F 56.7 °F 30.2 in SE 2 mph 5 mph 80% 0 in 130 W/m2
09:20 63.1 °F 56.5 °F 30.2 in NNW 2.9 mph 6 mph 79% 0 in 54 W/m2
09:25 63.3 °F 56.7 °F 30.2 in ESE 0.9 mph 4 mph 79% 0 in 54 W/m2
09:30 63.9 °F 56.8 °F 30.2 in NE 2 mph 7 mph 78% 0 in 54 W/m2
09:35 64.2 °F 56.8 °F 30.2 in ESE 2.9 mph 5 mph 77% 0 in 56 W/m2
09:40 64.4 °F 56.7 °F 30.2 in East 2.9 mph 8 mph 76% 0 in 56 W/m2
09:45 64.6 °F 56.8 °F 30.2 in SE 2.9 mph 5 mph 76% 0 in 56 W/m2
09:51 64.9 °F 57.2 °F 30.2 in East 2.9 mph 4 mph 76% 0 in 58 W/m2
09:56 65.1 °F 56.7 °F 30.2 in NW 2 mph 5 mph 74% 0 in 58 W/m2
10:01 65.3 °F 56.5 °F 30.2 in South 2 mph 8 mph 73% 0 in 58 W/m2
10:06 65.3 °F 56.5 °F 30.2 in Calm   2 mph 73% 0 in 58 W/m2
10:11 65.5 °F 56.7 °F 30.2 in NE 2 mph 6 mph 73% 0 in 60 W/m2
10:16 65.7 °F 56.3 °F 30.2 in SE 2 mph 4 mph 72% 0 in 62 W/m2
10:21 65.8 °F 56.5 °F 30.2 in SE 2.9 mph 8 mph 72% 0 in 62 W/m2
10:26 65.8 °F 56.5 °F 30.2 in NW 0.9 mph 3 mph 72% 0 in 62 W/m2
10:31 66 °F 56.7 °F 30.2 in North 0.9 mph 3 mph 72% 0 in 62 W/m2
10:36 66.6 °F 56.8 °F 30.2 in East 4 mph 11 mph 71% 0 in 63 W/m2
10:41 66.7 °F 56.7 °F 30.2 in East 6.9 mph 12 mph 70% 0 in 63 W/m2
10:46 66.7 °F 56.7 °F 30.2 in ENE 4 mph 8 mph 70% 0 in 63 W/m2
10:51 66.7 °F 56.7 °F 30.2 in WNW 2 mph 5 mph 70% 0 in 63 W/m2
10:56 66.9 °F 56.8 °F 30.2 in ENE 2 mph 10 mph 70% 0 in 65 W/m2
11:01 67.1 °F 56.7 °F 30.2 in SSW 2 mph 6 mph 69% 0 in 67 W/m2
11:06 67.3 °F 56.8 °F 30.2 in NW 2 mph 5 mph 69% 0 in 69 W/m2
11:11 67.5 °F 57 °F 30.2 in North 0.9 mph 3 mph 69% 0 in 72 W/m2
11:16 67.6 °F 56.7 °F 30.2 in West 2 mph 5 mph 68% 0 in 74 W/m2
11:21 67.8 °F 56.8 °F 30.2 in East 4 mph 5 mph 68% 0 in 76 W/m2
11:26 68.2 °F 57.2 °F 30.2 in North 6 mph 12 mph 68% 0 in 77 W/m2
11:31 68.4 °F 57 °F 30.2 in East 2.9 mph 6 mph 67% 0 in 81 W/m2
11:36 68.5 °F 56.7 °F 30.2 in East 0.9 mph 4 mph 66% 0 in 83 W/m2
11:41 69.1 °F 57.2 °F 30.2 in NE 2.9 mph 7 mph 66% 0 in 188 W/m2
11:46 69.4 °F 57.2 °F 30.2 in SE 2 mph 10 mph 65% 0 in 531 W/m2
11:51 69.6 °F 57.4 °F 30.2 in East 6 mph 6 mph 65% 0 in 555 W/m2
11:56 70 °F 57.2 °F 30.2 in East 2.9 mph 10 mph 64% 0 in 559 W/m2
12:01 70.3 °F 57.6 °F 30.2 in NE 6 mph 6 mph 64% 0 in 564 W/m2
12:06 70.5 °F 57.4 °F 30.2 in SSW 0.9 mph 8 mph 63% 0 in 573 W/m2
12:12 70.9 °F 57.7 °F 30.2 in East 4 mph 6 mph 63% 0 in 580 W/m2
12:17 71.2 °F 57.6 °F 30.2 in NE 2.9 mph 3 mph 62% 0 in 584 W/m2
12:22 71.4 °F 57.7 °F 30.2 in SSE 2 mph 8 mph 62% 0 in 589 W/m2
12:27 71.6 °F 57.4 °F 30.2 in ENE 2.9 mph 6 mph 61% 0 in 596 W/m2
12:32 72 °F 57.4 °F 30.2 in ENE 2 mph 3 mph 60% 0 in 596 W/m2
12:37 72.1 °F 57.6 °F 30.2 in SE 2.9 mph 7 mph 60% 0 in 598 W/m2
12:42 72.5 °F 57.7 °F 30.2 in NNE 0.9 mph 6 mph 60% 0 in 598 W/m2
12:47 72.7 °F 57.6 °F 30.2 in SSE 0.9 mph 2 mph 59% 0 in 603 W/m2
12:52 73 °F 57.4 °F 30.2 in ESE 2.9 mph 4 mph 58% 0 in 621 W/m2
12:57 73.2 °F 57.6 °F 30.2 in East 0.9 mph 2 mph 58% 0 in 628 W/m2
13:02 73.6 °F 57.4 °F 30.2 in SE 4 mph 7 mph 57% 0 in 633 W/m2
13:07 73.6 °F 57.9 °F 30.2 in Calm   4 mph 58% 0 in 635 W/m2
13:12 73.9 °F 57.7 °F 30.2 in NE 2 mph 6 mph 57% 0 in 640 W/m2
13:17 74.3 °F 57.6 °F 30.2 in SE 2 mph 4 mph 56% 0 in 647 W/m2
13:22 74.5 °F 57.7 °F 30.2 in WNW 2 mph 3 mph 56% 0 in 647 W/m2
13:27 74.8 °F 57.6 °F 30.2 in ENE 0.9 mph 3 mph 55% 0 in 650 W/m2
13:32 74.8 °F 57 °F 30.2 in ENE 6.9 mph 11 mph 54% 0 in 656 W/m2
13:37 74.8 °F 57.6 °F 30.2 in NE 2.9 mph 6 mph 55% 0 in 659 W/m2
13:42 74.8 °F 57.6 °F 30.2 in East 2 mph 11 mph 55% 0 in 654 W/m2
13:47 74.8 °F 57 °F 30.2 in NW 4 mph 5 mph 54% 0 in 654 W/m2
13:52 75 °F 56.7 °F 30.2 in South 0.9 mph 10 mph 53% 0 in 652 W/m2
13:57 75.2 °F 56.8 °F 30.2 in WNW 0.9 mph 1 mph 53% 0 in 652 W/m2
14:02 75.6 °F 57.2 °F 30.2 in SW 2 mph 9 mph 53% 0 in 654 W/m2
14:07 75.6 °F 56.7 °F 30.2 in SSE 4.9 mph 5 mph 52% 0 in 650 W/m2
14:12 75.7 °F 57.4 °F 30.2 in ENE 4.9 mph 5 mph 53% 0 in 654 W/m2
14:17 76.1 °F 57.2 °F 30.2 in NE 4.9 mph 10 mph 52% 0 in 650 W/m2
14:22 76.3 °F 56.8 °F 30.2 in NE 2.9 mph 7 mph 51% 0 in 647 W/m2
14:27 76.3 °F 56.8 °F 30.2 in ENE 2 mph 4 mph 51% 0 in 640 W/m2
14:32 76.1 °F 57.2 °F 30.2 in NW 0.9 mph 8 mph 52% 0 in 638 W/m2
14:37 76.5 °F 56.5 °F 30.2 in WSW 2 mph 3 mph 50% 0 in 638 W/m2
14:42 76.5 °F 56.5 °F 30.2 in NE 2.9 mph 5 mph 50% 0 in 635 W/m2
14:47 76.3 °F 56.8 °F 30.2 in NNW 2.9 mph 7 mph 51% 0 in 631 W/m2
14:52 76.6 °F 57.2 °F 30.2 in NNW 0.9 mph 2 mph 51% 0 in 624 W/m2
14:57 76.8 °F 56.8 °F 30.2 in NE 4 mph 9 mph 50% 0 in 619 W/m2
15:02 77.2 °F 56.5 °F 30.2 in ENE 4 mph 5 mph 49% 0 in 617 W/m2
15:07 77.4 °F 56.7 °F 30.2 in NNW 2.9 mph 9 mph 49% 0 in 608 W/m2
15:12 77.2 °F 56.5 °F 30.2 in NNE 0.9 mph 5 mph 49% 0 in 603 W/m2
15:17 77.2 °F 57 °F 30.1 in NNE 2 mph 6 mph 50% 0 in 596 W/m2
15:27 77.4 °F 56.7 °F 30.1 in NW 0.9 mph 4 mph 49% 0 in 584 W/m2
15:32 77.5 °F 56.3 °F 30.1 in North 12 mph 12 mph 48% 0 in 580 W/m2
15:37 77.5 °F 56.3 °F 30.1 in ESE 2.9 mph 5 mph 48% 0 in 577 W/m2
15:42 77.5 °F 56.8 °F 30.1 in ESE 2.9 mph 11 mph 49% 0 in 566 W/m2
15:47 77.5 °F 56.8 °F 30.1 in North 2.9 mph 5 mph 49% 0 in 557 W/m2
15:52 78.1 °F 56.8 °F 30.1 in ESE 4 mph 4 mph 48% 0 in 548 W/m2
15:57 78.1 °F 56.3 °F 30.1 in East 4 mph 6 mph 47% 0 in 540 W/m2
16:02 78.3 °F 56.3 °F 30.1 in East 4 mph 5 mph 47% 0 in 534 W/m2
16:07 78.4 °F 56.5 °F 30.1 in Calm   6 mph 47% 0 in 526 W/m2
16:12 78.3 °F 55.8 °F 30.1 in NE 4 mph 10 mph 46% 0 in 515 W/m2
16:17 77.5 °F 55 °F 30.1 in NE 4.9 mph 10 mph 46% 0 in 499 W/m2
16:23 77.5 °F 55 °F 30.1 in ESE 4 mph 9 mph 46% 0 in 489 W/m2
16:28 77.5 °F 55 °F 30.1 in ENE 4.9 mph 8 mph 46% 0 in 476 W/m2
16:33 77.4 °F 55 °F 30.1 in NE 0.9 mph 3 mph 46% 0 in 466 W/m2
16:38 77.4 °F 54.3 °F 30.1 in ESE 2.9 mph 13 mph 45% 0 in 445 W/m2
16:43 77.5 °F 54.5 °F 30.1 in ESE 2.9 mph 6 mph 45% 0 in 431 W/m2
17:01 78.1 °F 53.8 °F 30.1 in NE 2.9 mph 6 mph 43% 0 in 394 W/m2
17:06 78.1 °F 53.8 °F 30.1 in ESE 2.9 mph 8 mph 43% 0 in 373 W/m2
17:11 77.9 °F 53.6 °F 30.1 in East 2.9 mph 6 mph 43% 0 in 376 W/m2
17:21 77.4 °F 53.8 °F 30.1 in NNE 0.9 mph 6 mph 44% 0 in 343 W/m2
17:26 77.7 °F 53.4 °F 30.1 in WNW 2 mph 3 mph 43% 0 in 329 W/m2
17:31 77.7 °F 54.1 °F 30.1 in East 4 mph 5 mph 44% 0 in 318 W/m2
17:36 77.5 °F 53.2 °F 30.1 in ESE 2 mph 9 mph 43% 0 in 279 W/m2
17:41 77.4 °F 53.8 °F 30.1 in West 4 mph 9 mph 44% 0 in 278 W/m2
17:46 77 °F 53.4 °F 30.1 in ESE 2.9 mph 7 mph 44% 0 in 276 W/m2
17:51 76.6 °F 53.8 °F 30.1 in NE 2.9 mph 9 mph 45% 0 in 178 W/m2
17:56 76.5 °F 53.6 °F 30.1 in SE 0.9 mph 5 mph 45% 0 in 239 W/m2
18:01 76.5 °F 54.1 °F 30.1 in SE 2.9 mph 8 mph 46% 0 in 104 W/m2
18:06 76.5 °F 54.7 °F 30.1 in NE 4 mph 12 mph 47% 0 in 214 W/m2
18:11 76.3 °F 55.8 °F 30.1 in East 2 mph 9 mph 49% 0 in 202 W/m2
18:16 76.1 °F 56.7 °F 30.1 in ESE 2.9 mph 3 mph 51% 0 in 186 W/m2
18:21 75.7 °F 56.3 °F 30.1 in ESE 0.9 mph 6 mph 51% 0 in 169 W/m2
18:26 75.6 °F 56.1 °F 30.1 in East 0.9 mph 4 mph 51% 0 in 155 W/m2
18:31 75 °F 55.6 °F 30.1 in East 2 mph 4 mph 51% 0 in 141 W/m2
18:36 74.8 °F 56.1 °F 30.1 in Calm   5 mph 52% 0 in 123 W/m2
18:41 74.5 °F 55.8 °F 30.1 in ENE 0.9 mph 5 mph 52% 0 in 111 W/m2
18:46 74.3 °F 56.1 °F 30.1 in ENE 0.9 mph 2 mph 53% 0 in 95 W/m2
18:51 73.9 °F 55.8 °F 30.1 in East 2 mph 3 mph 53% 0 in 42 W/m2
18:56 73.6 °F 55.9 °F 30.1 in East 0.9 mph 4 mph 54% 0 in 39 W/m2
19:01 73 °F 55.4 °F 30.1 in East 2 mph 6 mph 54% 0 in 35 W/m2
19:06 72.5 °F 55.4 °F 30.1 in East 0.9 mph 4 mph 55% 0 in 32 W/m2
19:11 72.1 °F 55 °F 30.1 in East 0.9 mph 5 mph 55% 0 in 28 W/m2
19:16 71.8 °F 55.2 °F 30.1 in ENE 0.9 mph 3 mph 56% 0 in 25 W/m2
19:21 71.4 °F 54.9 °F 30.1 in NE 2.9 mph 3 mph 56% 0 in 21 W/m2
19:26 71.2 °F 55.2 °F 30.1 in ENE 2.9 mph 4 mph 57% 0 in 16 W/m2
19:31 71.1 °F 55.6 °F 30.1 in NE 0.9 mph 2 mph 58% 0 in 12 W/m2
19:36 70.5 °F 55 °F 30.1 in East 4 mph 8 mph 58% 0 in 9 W/m2
19:41 70.3 °F 55.4 °F 30.1 in ENE 2 mph 4 mph 59% 0 in 5 W/m2
19:47 70 °F 55 °F 30.1 in East 2 mph 3 mph 59% 0 in 0 W/m2
19:52 69.6 °F 55 °F 30.1 in East 0.9 mph 2 mph 60% 0 in 0 W/m2
19:57 69.3 °F 55.2 °F 30.1 in ENE 0.9 mph 3 mph 61% 0 in 0 W/m2
20:02 69.1 °F 54.7 °F 30.1 in ENE 2 mph 3 mph 60% 0 in 0 W/m2
20:07 68.9 °F 54.5 °F 30.1 in ENE 2 mph 6 mph 60% 0 in 0 W/m2
20:12 68.7 °F 54.3 °F 30.1 in SE 0.9 mph 4 mph 60% 0 in 0 W/m2
20:17 68.5 °F 54.1 °F 30.1 in NE 0.9 mph 5 mph 60% 0 in 0 W/m2
20:22 68.5 °F 54.5 °F 30.2 in East 0.9 mph 2 mph 61% 0 in 0 W/m2
20:27 68.2 °F 54.1 °F 30.2 in SSE 0.9 mph 5 mph 61% 0 in 0 W/m2
20:32 67.8 °F 54 °F 30.2 in East 2.9 mph 3 mph 61% 0 in 0 W/m2
20:37 67.5 °F 53.6 °F 30.2 in East 0.9 mph 4 mph 61% 0 in 0 W/m2
20:42 67.5 °F 53.6 °F 30.2 in WNW 0.9 mph 4 mph 61% 0 in 0 W/m2
20:47 67.3 °F 53.4 °F 30.2 in Calm   4 mph 61% 0 in 0 W/m2
20:52 66.9 °F 53.4 °F 30.2 in Calm   3 mph 62% 0 in 0 W/m2
20:57 66.7 °F 53.2 °F 30.2 in East 0.9 mph 4 mph 62% 0 in 0 W/m2
21:02 66.7 °F 53.2 °F 30.2 in East 2 mph 9 mph 62% 0 in 0 W/m2
21:07 66.6 °F 53.1 °F 30.2 in NNE 0.9 mph 4 mph 62% 0 in 0 W/m2
21:12 66.4 °F 53.4 °F 30.2 in Calm   9 mph 63% 0 in 0 W/m2
21:17 66.2 °F 52 °F 30.2 in NNE 4 mph 11 mph 60% 0 in 0 W/m2
21:22 66.4 °F 51.1 °F 30.2 in ENE 4.9 mph 8 mph 58% 0 in 0 W/m2
21:27 66.4 °F 50.7 °F 30.2 in NNE 2.9 mph 9 mph 57% 0 in 0 W/m2
21:32 66.4 °F 50.7 °F 30.2 in North 2 mph 4 mph 57% 0 in 0 W/m2
21:37 66.4 °F 50.7 °F 30.2 in ESE 2.9 mph 7 mph 57% 0 in 0 W/m2
21:42 66.2 °F 50.5 °F 30.2 in East 6.9 mph 12 mph 57% 0 in 0 W/m2
21:47 66 °F 50.4 °F 30.2 in SE 0.9 mph 8 mph 57% 0 in 0 W/m2
21:52 65.8 °F 50.2 °F 30.2 in Calm   9 mph 57% 0 in 0 W/m2
21:57 65.8 °F 50.2 °F 30.2 in ESE 2 mph 3 mph 57% 0 in 0 W/m2
22:02 65.7 °F 50.5 °F 30.2 in East 2 mph 9 mph 58% 0 in 0 W/m2
22:07 65.5 °F 50.4 °F 30.2 in East 2 mph 6 mph 58% 0 in 0 W/m2
22:12 65.1 °F 50 °F 30.2 in SE 2 mph 7 mph 58% 0 in 0 W/m2
22:17 64.9 °F 49.3 °F 30.2 in East 2 mph 4 mph 57% 0 in 0 W/m2
22:22 64.9 °F 49.3 °F 30.2 in ENE 2 mph 7 mph 57% 0 in 0 W/m2
22:27 64.9 °F 48.9 °F 30.2 in ESE 2 mph 7 mph 56% 0 in 0 W/m2
22:32 64.8 °F 49.1 °F 30.2 in East 2 mph 8 mph 57% 0 in 0 W/m2
22:37 64.6 °F 48.9 °F 30.2 in ESE 4 mph 8 mph 57% 0 in 0 W/m2
22:42 64.6 °F 48.9 °F 30.2 in SE 2 mph 5 mph 57% 0 in 0 W/m2
22:47 64.2 °F 49.1 °F 30.2 in ESE 4 mph 4 mph 58% 0 in 0 W/m2
22:52 64 °F 48.6 °F 30.2 in East 2 mph 4 mph 57% 0 in 0 W/m2
22:57 64 °F 48 °F 30.2 in SE 2.9 mph 9 mph 56% 0 in 0 W/m2
23:02 63.9 °F 47.8 °F 30.2 in ESE 2 mph 4 mph 56% 0 in 0 W/m2
23:07 63.7 °F 47.7 °F 30.2 in East 2 mph 9 mph 56% 0 in 0 W/m2
23:12 63.5 °F 47.5 °F 30.2 in SSE 2.9 mph 8 mph 56% 0 in 0 W/m2
23:17 63.3 °F 46.9 °F 30.2 in Calm   4 mph 55% 0 in 0 W/m2
23:23 63.3 °F 47.3 °F 30.2 in NE 2.9 mph 6 mph 56% 0 in 0 W/m2
23:28 63.1 °F 46.8 °F 30.2 in East 0.9 mph 5 mph 55% 0 in 0 W/m2
23:33 63 °F 46.9 °F 30.2 in SE 0.9 mph 4 mph 56% 0 in 0 W/m2
23:38 62.8 °F 46.9 °F 30.2 in ENE 2 mph 4 mph 56% 0 in 0 W/m2
23:43 62.6 °F 46.8 °F 30.2 in ENE 0.9 mph 3 mph 56% 0 in 0 W/m2
23:48 62.2 °F 46.8 °F 30.2 in Calm   2 mph 57% 0 in 0 W/m2
23:53 62.1 °F 46.6 °F 30.2 in Calm   2 mph 57% 0 in 0 W/m2
23:58 61.9 °F 46.9 °F 30.2 in ENE 0.9 mph 2 mph 58% 0 in 0 W/m2
Juneau County Weather
Compliments of Weather Underground - 4 mb